Impacts METAR Board INFO
IDs:

KSLC - Salt Lake City Intl, UT, US

Updated at: 1201 UTC 12 Dec 2017
Potential Impact None Slight Moderate High
Time12/00Z 12/01Z 12/02Z 12/03Z 12/04Z 12/05Z 12/06Z 12/07Z 12/08Z 12/09Z 12/10Z 12/11Z 12/12Z
VIS0.25 0.25 0.25 0.25 0.25 0.25 0.25 0.25 0.25 0.25 0.25 0.25 0.25
CIG3 2 2 2 3 3 4 3 6 5 2 4 3
CoverOVCOVCOVXOVCOVCOVXOVCOVCOVCOVCOVXOVXOVC
FltCatLIFRLIFRLIFRLIFRLIFRLIFRLIFRLIFRLIFRLIFRLIFRLIFRLIFR
WXBRBRFZFG-SN FZFGBRFZFGBR-SN FZFG-SN FZFGFZFGFZFGFZFGFZFG
WDir3503300000070003502100
WSpd4 3 0 0 0 0 0 3 0 0 3 3 0
WGst-- -- -- -- -- -- -- -- -- -- -- -- --
Raw hourly METARs
KSLC 112354Z 35004KT 1/4SM R16L/P6000FT BR OVC003 M03/M03 A3057 RMK AO2 SFC VIS 1 SLP383 60000 I6000 T10281033 11011 21028 55007
KSLC 120054Z 33003KT 1/4SM R16L/2000V5500FT BR OVC002 M03/M03 A3057 RMK AO2 SFC VIS 1 SLP384 T10281033
KSLC 120154Z 00000KT 1/4SM R16L/1400V1600FT FZFG VV002 M03/M03 A3058 RMK AO2 SFC VIS 1/2 SNB36E48 SLP386 P0000 T10281033
KSLC 120254Z 00000KT 1/4SM R16L/1200V1800FT -SN FZFG OVC002 M03/M04 A3059 RMK AO2 SFC VIS 1/2 SNB09 SLP387 P0001 60001 T10281039 51007 VISNO NW RNWY $
KSLC 120354Z 00000KT 1/4SM R16L/1200FT BR OVC003 M03/M04 A3060 RMK AO2 SFC VIS 1 SNE54 SLP390 P0000 T10281039 VISNO NW RNWY $
KSLC 120454Z 00000KT 1/4SM R16L/1000V1400FT FZFG VV003 M03/M04 A3060 RMK AO2 SNB14E46 SLP390 P0000 T10331039 VISNO NW RNWY $
KSLC 120554Z 00000KT 1/4SM R16L/1400V1800FT BR OVC004 M03/M04 A3061 RMK AO2 SFC VIS 3/4 SNB36E45 SLP391 P0000 60001 T10331039 11028 21033 51006 VISNO NW RNWY $
KSLC 120654Z 07003KT 1/4SM R16L/2000V5000FT -SN FZFG OVC003 M04/M04 A3060 RMK AO2 SNB0558E21B50 SLP390 P0000 T10391044 410111061 VISNO NW RNWY $
KSLC 120804Z 00000KT 1/4SM R16L/1600V1800FT -SN FZFG OVC006 M04/M05 A3060 RMK AO2 P0000 T10391050 VISNO NW RNWY $
KSLC 120854Z 00000KT 1/4SM R16L/1200V1800FT FZFG OVC005 M04/M05 A3061 RMK AO2 SNE30 SLP393 P0000 60001 T10391050 53001 VISNO NW RNWY $
KSLC 120954Z 35003KT 1/4SM R16L/1200V1400FT FZFG VV002 M04/M04 A3062 RMK AO2 SLP394 T10391044 VISNO NW RNWY $
KSLC 121054Z 21003KT 1/4SM R16L/1800V2600FT FZFG VV004 M04/M06 A3061 RMK AO2 SNB25E47 SLP397 P0000 T10441056 VISNO NW RNWY $
KSLC 121154Z 00000KT 1/4SM R16L/2000VP6000FT FZFG OVC003 M04/M05 A3060 RMK AO2 SNB10E35 SLP390 P0000 60001 70002 T10441050 11033 21044 58004 VISNO NW RNWY $